Time;durP1;ratioP1;P1;durP2;ratioP2;P2;SDS_P1;SDS_P2;PMS_P1;PMS_P2;Temp;Humidity;BMP_temperature;BMP_pressure;BME280_temperature;BME280_humidity;BME280_pressure;Samples;Min_cycle;Max_cycle;Signal;HPM_P1;HPM_P2
2022/02/11 00:02:22;;;;;;;1999.90;999.90;;;;;;;-0.07;59.82;101472.66;5047307;27;97590;-69
2022/02/11 00:07:43;;;;;;;1999.90;999.90;;;;;;;-0.12;59.96;101469.69;5034042;27;97267;-69
2022/02/11 00:10:13;;;;;;;1999.90;999.90;;;;;;;-0.15;59.53;101473.78;5050048;27;98884;-71
2022/02/11 00:12:41;;;;;;;1999.90;999.90;;;;;;;-0.17;59.85;101473.69;5055098;27;99622;-71
2022/02/11 00:17:53;;;;;;;1999.90;999.90;;;;;;;-0.20;59.93;101476.06;5037689;27;98643;-71
2022/02/11 00:20:20;;;;;;;1999.90;999.90;;;;;;;-0.20;59.83;101476.06;5055489;27;99444;-72
2022/02/11 00:22:48;;;;;;;1999.90;999.90;;;;;;;-0.23;60.18;101475.81;5059958;27;98233;-71
2022/02/11 00:25:18;;;;;;;1999.90;999.90;;;;;;;-0.23;60.07;101475.81;5050762;27;97985;-70
2022/02/11 00:28:28;;;;;;;1999.90;999.90;;;;;;;-0.23;60.09;101467.97;5057002;27;97233;-70
2022/02/11 00:31:05;;;;;;;1999.90;999.90;;;;;;;-0.25;60.16;101471.28;5056951;27;97606;-70
2022/02/11 00:33:35;;;;;;;1999.90;999.90;;;;;;;-0.26;59.64;101469.47;5049228;27;98351;-71
2022/02/11 00:36:05;;;;;;;1999.90;999.90;;;;;;;-0.25;59.94;101468.69;5058381;27;97974;-70
2022/02/11 00:38:46;;;;;;;1999.90;999.90;;;;;;;-0.26;60.26;101472.06;5053490;27;98357;-70
2022/02/11 01:03:34;;;;;;;1999.90;999.90;;;;;;;-0.22;60.04;101461.97;5051895;27;99591;-69
2022/02/11 01:06:01;;;;;;;1999.90;999.90;;;;;;;-0.22;60.29;101455.81;5049779;27;99914;-69
2022/02/11 01:08:29;;;;;;;1999.90;999.90;;;;;;;-0.24;60.08;101460.03;5053064;27;97258;-74
2022/02/11 01:10:59;;;;;;;1999.90;999.90;;;;;;;-0.22;60.04;101461.06;5052099;27;97431;-69
2022/02/11 01:13:28;;;;;;;1999.90;999.90;;;;;;;-0.22;59.65;101466.28;5045732;27;99178;-69
2022/02/11 01:16:03;;;;;;;1999.90;999.90;;;;;;;0.10;59.12;101460.03;5035397;27;98856;-69
2022/02/11 01:18:31;;;;;;;1999.90;999.90;;;;;;;0.27;59.12;101457.75;5049655;27;97444;-69
2022/02/11 01:21:03;;;;;;;1999.90;999.90;;;;;;;0.05;59.39;101448.31;5050075;27;96893;-70
2022/02/11 01:23:46;;;;;;;1999.90;999.90;;;;;;;0.00;59.38;101452.31;5055643;27;98112;-68
2022/02/11 01:26:27;;;;;;;1999.90;999.90;;;;;;;0.33;59.15;101446.03;5046534;27;97941;-70
2022/02/11 01:29:24;;;;;;;1999.90;999.90;;;;;;;0.11;59.41;101451.38;5049215;27;98822;-70
2022/02/11 01:31:59;;;;;;;1999.90;999.90;;;;;;;-0.00;60.16;101438.31;5046391;27;97174;-70
2022/02/11 01:34:45;;;;;;;1999.90;999.90;;;;;;;-0.04;59.93;101441.50;5054965;27;100706;-71
2022/02/11 01:51:31;;;;;;;1999.90;999.90;;;;;;;-0.04;60.08;101447.63;5058694;27;97138;-69
2022/02/11 01:54:06;;;;;;;1999.90;999.90;;;;;;;-0.10;60.33;101441.94;5054438;27;98237;-70
2022/02/11 01:56:43;;;;;;;1999.90;999.90;;;;;;;-0.11;60.24;101448.00;5053304;27;97773;-69
2022/02/11 01:59:52;;;;;;;1999.90;999.90;;;;;;;-0.12;60.31;101448.75;5056030;27;99121;-69
2022/02/11 02:03:02;;;;;;;1999.90;999.90;;;;;;;-0.16;60.40;101446.75;5054881;27;97017;-70
2022/02/11 02:05:53;;;;;;;1999.90;999.90;;;;;;;-0.19;60.62;101449.13;5052599;27;96845;-70
2022/02/11 02:14:23;;;;;;;1999.90;999.90;;;;;;;-0.26;60.65;101428.53;5023784;27;97825;-69
2022/02/11 02:17:46;;;;;;;1999.90;999.90;;;;;;;-0.27;60.57;101425.81;5049654;27;97597;-70
2022/02/11 02:22:57;;;;;;;1999.90;999.90;;;;;;;-0.28;60.64;101426.63;5066779;27;99684;-69
2022/02/11 02:25:35;;;;;;;1999.90;999.90;;;;;;;-0.30;60.73;101420.38;5054954;27;98064;-70
2022/02/11 02:34:14;;;;;;;1999.90;999.90;;;;;;;-0.06;59.71;101428.31;5100047;27;96770;-69
2022/02/11 02:37:11;;;;;;;1999.90;999.90;;;;;;;0.09;59.67;101428.50;5087669;27;98223;-69
2022/02/11 02:56:45;;;;;;;1999.90;999.90;;;;;;;-0.29;59.09;101416.94;5002229;27;97495;-70
2022/02/11 02:59:27;;;;;;;1999.90;999.90;;;;;;;-0.40;59.83;101413.53;5071186;27;98581;-68
2022/02/11 03:02:02;;;;;;;1999.90;999.90;;;;;;;-0.48;59.75;101416.38;5092816;27;98637;-69
2022/02/11 03:35:23;;;;;;;1999.90;999.90;;;;;;;-0.77;59.62;101419.38;5094523;27;98763;-68
2022/02/11 03:49:16;;;;;;;1999.90;999.90;;;;;;;-0.87;60.01;101422.09;5008453;27;98975;-69
2022/02/11 03:52:04;;;;;;;1999.90;999.90;;;;;;;-0.90;59.75;101412.31;5038712;27;97191;-70
2022/02/11 04:20:07;;;;;;;1999.90;999.90;;;;;;;-1.04;59.77;101428.63;5082274;27;97960;-69
2022/02/11 04:56:09;;;;;;;1999.90;999.90;;;;;;;-0.97;60.19;101420.47;4992565;27;99846;-71
2022/02/11 05:01:23;;;;;;;1999.90;999.90;;;;;;;-0.90;60.08;101414.94;5052397;27;97689;-71
2022/02/11 05:03:51;;;;;;;1999.90;999.90;;;;;;;-0.87;60.19;101415.16;5053232;27;98663;-70
2022/02/11 05:06:21;;;;;;;1999.90;999.90;;;;;;;-0.83;59.62;101411.09;5071783;27;98895;-69
2022/02/11 05:08:49;;;;;;;1999.90;999.90;;;;;;;-0.82;59.88;101405.06;5049327;27;99273;-69
2022/02/11 05:11:17;;;;;;;1999.90;999.90;;;;;;;-0.79;60.33;101397.44;5064360;27;97266;-69
2022/02/11 05:13:45;;;;;;;1999.90;999.90;;;;;;;-0.77;59.61;101408.94;5078355;27;97188;-69
2022/02/11 05:16:12;;;;;;;1999.90;999.90;;;;;;;-0.77;59.81;101411.53;5040418;27;99780;-70
2022/02/11 05:18:41;;;;;;;1999.90;999.90;;;;;;;-0.75;59.63;101407.34;5070316;27;97872;-70
2022/02/11 05:21:09;;;;;;;1999.90;999.90;;;;;;;-0.72;60.07;101412.78;5071631;27;97933;-68
2022/02/11 05:23:37;;;;;;;1999.90;999.90;;;;;;;-0.70;59.84;101411.22;5073944;27;97286;-70
2022/02/11 05:26:06;;;;;;;1999.90;999.90;;;;;;;-0.65;59.99;101417.72;5051479;27;97751;-69
2022/02/11 05:28:34;;;;;;;1999.90;999.90;;;;;;;-0.63;59.64;101413.53;5073595;27;98172;-68
2022/02/11 05:31:02;;;;;;;1999.90;999.90;;;;;;;-0.64;60.18;101422.13;5067511;27;97673;-69
2022/02/11 05:33:29;;;;;;;1999.90;999.90;;;;;;;-0.66;59.68;101422.81;5069477;27;99192;-69
2022/02/11 05:35:59;;;;;;;1999.90;999.90;;;;;;;-0.62;59.99;101425.78;5064448;27;98645;-68
2022/02/11 05:38:27;;;;;;;1999.90;999.90;;;;;;;-0.62;59.88;101424.88;5064919;27;97638;-67
2022/02/11 05:40:55;;;;;;;1999.90;999.90;;;;;;;-0.66;59.82;101423.72;5034421;27;98765;-69
2022/02/11 05:43:22;;;;;;;1999.90;999.90;;;;;;;-0.64;59.94;101432.59;5035373;27;99637;-67
2022/02/11 05:45:50;;;;;;;1999.90;999.90;;;;;;;-0.66;59.88;101436.78;5056567;27;98135;-69
2022/02/11 05:48:18;;;;;;;1999.90;999.90;;;;;;;-0.68;59.92;101429.66;5056839;27;98620;-68
2022/02/11 05:50:45;;;;;;;1999.90;999.90;;;;;;;-0.70;59.62;101436.47;5057808;27;101258;-69
2022/02/11 05:53:16;;;;;;;1999.90;999.90;;;;;;;-0.79;59.51;101425.31;5051518;27;97277;-70
2022/02/11 05:55:44;;;;;;;1999.90;999.90;;;;;;;-0.89;59.66;101434.13;5034883;27;98324;-71
2022/02/11 05:58:11;;;;;;;1999.90;999.90;;;;;;;-0.98;59.85;101455.25;5035268;27;100522;-69
2022/02/11 06:00:39;;;;;;;1999.90;999.90;;;;;;;-1.04;59.83;101438.16;5038346;27;98095;-69
2022/02/11 06:03:07;;;;;;;1999.90;999.90;;;;;;;-1.06;59.73;101444.97;5040147;27;99240;-69
2022/02/11 06:05:35;;;;;;;1999.90;999.90;;;;;;;-1.08;60.18;101444.84;5059527;27;97624;-69
2022/02/11 06:08:03;;;;;;;1999.90;999.90;;;;;;;-1.11;59.65;101448.94;5065326;27;97811;-68
2022/02/11 06:10:32;;;;;;;1999.90;999.90;;;;;;;-1.15;60.15;101439.03;5062117;27;97253;-70
2022/02/11 06:13:02;;;;;;;1999.90;999.90;;;;;;;-1.17;60.19;101461.50;5044608;27;97104;-69
2022/02/11 06:15:29;;;;;;;1999.90;999.90;;;;;;;-1.22;60.29;101460.22;5067167;27;97035;-69
2022/02/11 06:17:57;;;;;;;1999.90;999.90;;;;;;;-1.26;59.83;101464.31;5067306;27;97603;-68
2022/02/11 06:20:28;;;;;;;1999.90;999.90;;;;;;;-1.30;60.31;101459.63;5067106;27;98047;-69
2022/02/11 06:22:56;;;;;;;1999.90;999.90;;;;;;;-1.31;60.15;101473.47;5050271;27;97074;-69
2022/02/11 06:25:24;;;;;;;1999.90;999.90;;;;;;;-1.34;60.14;101480.16;5062269;27;98128;-68
2022/02/11 06:27:53;;;;;;;1999.90;999.90;;;;;;;-1.35;60.00;101494.91;5061267;27;98615;-72
2022/02/11 06:30:21;;;;;;;1999.90;999.90;;;;;;;-1.38;60.15;101479.00;5063274;27;97527;-72
2022/02/11 06:32:48;;;;;;;1999.90;999.90;;;;;;;-1.38;59.82;101480.69;5047639;27;97047;-72
2022/02/11 06:35:16;;;;;;;1999.90;999.90;;;;;;;-1.41;59.81;101476.13;5044546;27;100546;-69
2022/02/11 06:37:45;;;;;;;1999.90;999.90;;;;;;;-1.43;60.21;101480.31;5063891;27;98285;-70
2022/02/11 06:40:14;;;;;;;1999.90;999.90;;;;;;;-1.47;60.10;101466.91;5041109;27;97342;-71
2022/02/11 06:42:42;;;;;;;1999.90;999.90;;;;;;;-1.48;59.70;101473.84;5060139;27;97791;-70
2022/02/11 06:45:11;;;;;;;1999.90;999.90;;;;;;;-1.48;60.31;101476.44;5060132;27;97490;-73
2022/02/11 06:47:39;;;;;;;1999.90;999.90;;;;;;;-1.47;60.11;101475.63;5041403;27;100284;-69
2022/02/11 06:50:08;;;;;;;1999.90;999.90;;;;;;;-1.45;59.72;101491.44;5021722;27;98789;-70
2022/02/11 06:52:35;;;;;;;1999.90;999.90;;;;;;;-1.47;59.55;101485.19;5037339;27;97763;-71
2022/02/11 06:55:04;;;;;;;1999.90;999.90;;;;;;;-1.46;59.99;101476.56;5058023;27;98470;-69
2022/02/11 06:57:31;;;;;;;1999.90;999.90;;;;;;;-1.46;59.94;101476.56;5060602;27;99064;-71
2022/02/11 07:00:00;;;;;;;1999.90;999.90;;;;;;;-1.44;60.18;101474.97;5061807;27;97467;-70
2022/02/11 07:02:33;;;;;;;1999.90;999.90;;;;;;;-1.43;60.26;101480.31;5060774;27;96990;-71
2022/02/11 07:05:01;;;;;;;1999.90;999.90;;;;;;;-1.41;60.00;101480.44;5058852;27;99927;-71
2022/02/11 07:07:28;;;;;;;1999.90;999.90;;;;;;;-1.39;60.07;101479.78;5045879;27;97759;-70
2022/02/11 07:09:56;;;;;;;1999.90;999.90;;;;;;;-1.37;59.65;101482.50;5049220;27;96943;-68
2022/02/11 07:12:24;;;;;;;1999.90;999.90;;;;;;;-1.37;59.36;101490.34;5042113;27;97101;-71
2022/02/11 07:14:51;;;;;;;1999.90;999.90;;;;;;;-1.35;59.62;101486.16;5042285;27;97926;-71
2022/02/11 07:17:19;;;;;;;1999.90;999.90;;;;;;;-1.34;59.08;101483.66;5046569;27;99081;-70
2022/02/11 07:19:48;;;;;;;1999.90;999.90;;;;;;;-1.34;59.41;101482.78;5065581;27;98162;-72
2022/02/11 07:22:16;;;;;;;1999.90;999.90;;;;;;;-1.35;59.64;101487.06;5044560;27;97377;-71
2022/02/11 07:24:44;;;;;;;1999.90;999.90;;;;;;;-1.34;59.74;101498.44;5062838;27;98702;-71
2022/02/11 07:27:12;;;;;;;1999.90;999.90;;;;;;;-1.36;59.32;101493.06;5058449;27;97671;-71
2022/02/11 07:29:39;;;;;;;1999.90;999.90;;;;;;;-1.34;59.53;101493.22;5055761;27;97873;-72
2022/02/11 07:32:08;;;;;;;1999.90;999.90;;;;;;;-1.34;59.24;101499.31;5053783;27;97570;-72
2022/02/11 07:34:36;;;;;;;1999.90;999.90;;;;;;;-1.33;59.37;101500.25;5025745;27;99280;-69
2022/02/11 07:37:05;;;;;;;1999.90;999.90;;;;;;;-1.35;59.07;101496.59;5030486;27;100411;-69
2022/02/11 07:39:49;;;;;;;1999.90;999.90;;;;;;;-1.36;59.39;101497.41;5032417;27;99299;-70
2022/02/11 07:42:17;;;;;;;1999.90;999.90;;;;;;;-1.34;59.04;101499.31;5055954;27;97177;-71
2022/02/11 07:44:45;;;;;;;1999.90;999.90;;;;;;;-1.32;59.48;101491.63;5052898;27;98764;-69
2022/02/11 07:47:13;;;;;;;1999.90;999.90;;;;;;;-1.27;59.12;101490.28;5047385;27;97734;-69
2022/02/11 07:49:40;;;;;;;1999.90;999.90;;;;;;;-1.22;59.26;101491.56;5047663;27;97459;-71
2022/02/11 07:52:09;;;;;;;1999.90;999.90;;;;;;;-1.19;58.58;101499.63;5049032;27;99811;-71
2022/02/11 07:54:37;;;;;;;1999.90;999.90;;;;;;;-1.18;58.91;101485.81;5050149;27;98295;-70
2022/02/11 07:57:05;;;;;;;1999.90;999.90;;;;;;;-1.15;58.86;101486.03;5051299;27;98112;-69
2022/02/11 07:59:38;;;;;;;1999.90;999.90;;;;;;;-1.10;58.88;101489.91;5048350;27;97501;-70
2022/02/11 08:02:06;;;;;;;1999.90;999.90;;;;;;;-1.10;58.56;101485.59;5038170;27;98972;-71
2022/02/11 08:04:34;;;;;;;1999.90;999.90;;;;;;;-1.07;58.57;101487.56;5034677;27;101389;-70
2022/02/11 08:07:01;;;;;;;1999.90;999.90;;;;;;;-1.05;58.39;101484.25;5050776;27;98246;-70
2022/02/11 08:09:30;;;;;;;1999.90;999.90;;;;;;;-1.02;58.07;101491.44;5030549;27;97893;-71
2022/02/11 08:11:58;;;;;;;1999.90;999.90;;;;;;;-1.00;58.37;101490.78;5051487;27;98045;-70
2022/02/11 08:14:26;;;;;;;1999.90;999.90;;;;;;;-0.96;58.31;101499.75;5051164;27;99612;-70
2022/02/11 08:16:54;;;;;;;1999.90;999.90;;;;;;;-0.93;58.36;101499.97;5052960;27;97711;-70
2022/02/11 08:19:22;;;;;;;1999.90;999.90;;;;;;;-0.92;58.13;101493.94;5035692;27;98056;-71
2022/02/11 08:21:50;;;;;;;1999.90;999.90;;;;;;;-0.93;57.72;101497.38;5038204;27;97348;-71
2022/02/11 08:24:18;;;;;;;1999.90;999.90;;;;;;;-0.92;58.19;101510.53;5032260;27;100427;-69
2022/02/11 08:26:47;;;;;;;1999.90;999.90;;;;;;;-0.92;57.77;101522.69;5030721;27;100391;-72
2022/02/11 08:29:21;;;;;;;1999.90;999.90;;;;;;;-0.93;57.91;101536.56;5036365;27;99637;-70
2022/02/11 08:31:48;;;;;;;1999.90;999.90;;;;;;;-0.95;57.82;101557.34;5056389;27;97091;-71
2022/02/11 08:34:16;;;;;;;1999.90;999.90;;;;;;;-1.04;58.32;101554.00;5054931;27;97773;-71
2022/02/11 08:36:44;;;;;;;1999.90;999.90;;;;;;;-1.15;58.90;101546.09;5030347;27;97752;-71
2022/02/11 08:39:12;;;;;;;1999.90;999.90;;;;;;;-1.24;58.90;101548.88;5049496;27;97702;-71
2022/02/11 08:41:40;;;;;;;1999.90;999.90;;;;;;;-1.34;59.11;101553.25;5051153;27;97956;-70
2022/02/11 08:44:09;;;;;;;1999.90;999.90;;;;;;;-1.43;59.38;101545.56;5055982;27;98758;-70
2022/02/11 08:46:37;;;;;;;1999.90;999.90;;;;;;;-1.50;59.69;101543.25;5015602;27;99670;-70
2022/02/11 08:49:04;;;;;;;1999.90;999.90;;;;;;;-1.52;59.09;101544.81;5050358;27;97744;-72
2022/02/11 08:51:32;;;;;;;1999.90;999.90;;;;;;;-1.55;59.71;101543.66;5049962;27;99332;-70
2022/02/11 08:54:01;;;;;;;1999.90;999.90;;;;;;;-1.59;59.63;101533.75;5050090;27;99276;-69
2022/02/11 08:56:29;;;;;;;1999.90;999.90;;;;;;;-1.57;59.39;101551.38;5030035;27;100651;-70
2022/02/11 08:58:57;;;;;;;1999.90;999.90;;;;;;;-1.59;60.22;101549.41;5033947;27;99505;-69
2022/02/11 09:01:26;;;;;;;1999.90;999.90;;;;;;;-1.61;60.21;101553.59;5034067;27;97180;-71
2022/02/11 09:03:54;;;;;;;1999.90;999.90;;;;;;;-1.61;59.62;101559.75;5049405;27;98224;-70
2022/02/11 09:06:22;;;;;;;1999.90;999.90;;;;;;;-1.64;60.53;101550.75;5027095;27;102608;-71
2022/02/11 09:08:50;;;;;;;1999.90;999.90;;;;;;;-1.67;60.79;101548.81;5050087;27;96754;-70
2022/02/11 09:11:20;;;;;;;1999.90;999.90;;;;;;;-1.68;60.71;101552.19;5031185;27;97269;-71
2022/02/11 09:13:47;;;;;;;1999.90;999.90;;;;;;;-1.66;60.34;101557.53;5051045;27;100382;-70
2022/02/11 09:16:15;;;;;;;1999.90;999.90;;;;;;;-1.65;60.46;101557.66;5052335;27;98028;-72
2022/02/11 09:18:44;;;;;;;1999.90;999.90;;;;;;;-1.65;60.33;101549.84;5037345;27;97796;-69
2022/02/11 09:21:12;;;;;;;1999.90;999.90;;;;;;;-1.63;60.72;101556.09;5033140;27;98263;-70
2022/02/11 09:23:40;;;;;;;1999.90;999.90;;;;;;;-1.61;60.46;101553.59;5056039;27;99483;-72
2022/02/11 09:26:07;;;;;;;1999.90;999.90;;;;;;;-1.64;60.62;101549.06;5030394;27;99183;-72
2022/02/11 09:28:36;;;;;;;1999.90;999.90;;;;;;;-1.58;60.61;101553.88;5042763;27;97921;-70
2022/02/11 09:31:04;;;;;;;1999.90;999.90;;;;;;;-1.52;60.59;101559.59;5061265;27;96835;-71
2022/02/11 09:33:31;;;;;;;1999.90;999.90;;;;;;;-1.48;61.21;101554.72;5040642;27;101543;-71
2022/02/11 09:36:01;;;;;;;1999.90;999.90;;;;;;;-1.41;60.49;101559.66;5042247;27;100730;-72
2022/02/11 09:38:28;;;;;;;1999.90;999.90;;;;;;;-1.37;60.93;101560.81;5061935;27;97335;-70
2022/02/11 09:40:56;;;;;;;1999.90;999.90;;;;;;;-1.33;60.88;101552.44;5046532;27;98066;-71
2022/02/11 09:43:26;;;;;;;1999.90;999.90;;;;;;;-1.28;60.40;101553.72;5052046;27;98265;-71
2022/02/11 09:45:54;;;;;;;1999.90;999.90;;;;;;;-1.20;60.71;101565.72;5034861;27;100182;-72
2022/02/11 09:48:23;;;;;;;1999.90;999.90;;;;;;;-1.17;60.57;101568.56;5053288;27;97386;-72
2022/02/11 09:50:53;;;;;;;1999.90;999.90;;;;;;;-1.13;60.51;101568.94;5033804;27;97538;-72
2022/02/11 09:53:26;;;;;;;1999.90;999.90;;;;;;;-1.10;60.42;101568.25;5033845;27;100768;-71
2022/02/11 09:55:54;;;;;;;1999.90;999.90;;;;;;;-1.07;60.39;101577.25;5048558;27;98673;-71
2022/02/11 09:58:22;;;;;;;1999.90;999.90;;;;;;;-1.04;60.14;101569.66;5032603;27;98083;-70
2022/02/11 10:00:52;;;;;;;1999.90;999.90;;;;;;;-1.03;60.48;101586.25;5042738;27;97804;-71
2022/02/11 10:03:21;;;;;;;1999.90;999.90;;;;;;;-1.01;60.56;101589.88;5025397;27;100680;-72
2022/02/11 10:05:49;;;;;;;1999.90;999.90;;;;;;;-1.01;60.21;101588.19;5042846;27;99003;-71
2022/02/11 10:08:17;;;;;;;1999.90;999.90;;;;;;;-0.99;60.11;101588.31;5044181;27;97784;-71
2022/02/11 10:10:52;;;;;;;1999.90;999.90;;;;;;;-0.98;60.64;101591.06;5040150;27;96900;-72
2022/02/11 10:13:24;;;;;;;1999.90;999.90;;;;;;;-0.97;60.84;101602.41;5063116;27;100329;-72
2022/02/11 10:15:55;;;;;;;1999.90;999.90;;;;;;;-0.96;60.69;101609.47;5061335;27;100119;-70
2022/02/11 10:18:27;;;;;;;1999.90;999.90;;;;;;;-0.93;60.68;101601.88;5041696;27;99701;-72
2022/02/11 10:20:56;;;;;;;1999.90;999.90;;;;;;;-0.90;60.55;101599.47;5065703;27;96805;-69
2022/02/11 10:23:27;;;;;;;1999.90;999.90;;;;;;;-0.87;60.38;101611.09;5061422;27;97973;-71
2022/02/11 10:26:02;;;;;;;1999.90;999.90;;;;;;;-0.83;60.70;101609.66;5059432;27;97304;-71
2022/02/11 10:28:32;;;;;;;1999.90;999.90;;;;;;;-0.79;60.24;101613.44;5061583;27;97727;-70
2022/02/11 10:31:11;;;;;;;1999.90;999.90;;;;;;;-0.75;60.14;101618.06;5042330;27;99094;-69
2022/02/11 10:33:53;;;;;;;1999.90;999.90;;;;;;;-0.73;60.53;101620.03;5063502;27;100694;-72
2022/02/11 10:36:22;;;;;;;1999.90;999.90;;;;;;;-0.68;60.29;101623.03;5064915;27;99189;-72
2022/02/11 10:39:12;;;;;;;1999.90;999.90;;;;;;;-0.63;60.38;101624.28;5063351;27;97419;-71
2022/02/11 10:41:43;;;;;;;1999.90;999.90;;;;;;;-0.57;60.02;101617.84;5065522;27;98326;-71
2022/02/11 10:44:13;;;;;;;1999.90;999.90;;;;;;;-0.52;60.08;101621.72;5062810;27;97874;-70
2022/02/11 10:46:42;;;;;;;1999.90;999.90;;;;;;;-0.50;59.96;101619.25;5045673;27;97899;-72
2022/02/11 10:49:11;;;;;;;1999.90;999.90;;;;;;;-0.49;60.27;101619.34;5063218;27;99261;-70
2022/02/11 10:51:41;;;;;;;1999.90;999.90;;;;;;;-0.49;60.36;101627.19;5065076;27;97072;-71
2022/02/11 10:54:26;;;;;;;1999.90;999.90;;;;;;;-0.51;60.57;101623.56;5059692;27;98388;-72
2022/02/11 10:56:57;;;;;;;1999.90;999.90;;;;;;;-0.49;60.38;101627.19;5025195;27;100510;-71
2022/02/11 10:59:26;;;;;;;1999.90;999.90;;;;;;;-0.51;60.60;101628.78;5063455;27;97885;-73
2022/02/11 11:01:55;;;;;;;1999.90;999.90;;;;;;;-0.51;60.58;101623.56;5060137;27;97728;-73
2022/02/11 11:04:23;;;;;;;1999.90;999.90;;;;;;;-0.49;60.68;101621.97;5062489;27;99112;-70
2022/02/11 11:06:53;;;;;;;1999.90;999.90;;;;;;;-0.45;60.41;101613.59;5063341;27;96942;-70
2022/02/11 11:09:25;;;;;;;1999.90;999.90;;;;;;;-0.42;60.45;101615.50;5060774;27;98495;-73
2022/02/11 11:11:55;;;;;;;1999.90;999.90;;;;;;;-0.41;60.74;101617.34;5040787;27;96900;-69
2022/02/11 11:14:24;;;;;;;1999.90;999.90;;;;;;;-0.43;61.16;101611.09;5023265;27;99361;-70
2022/02/11 11:16:54;;;;;;;1999.90;999.90;;;;;;;-0.45;61.10;101608.34;5035034;27;97611;-70
2022/02/11 11:19:22;;;;;;;1999.90;999.90;;;;;;;-0.41;60.75;101614.72;5042420;27;96846;-69
2022/02/11 11:22:10;;;;;;;1999.90;999.90;;;;;;;-0.39;61.13;101610.53;5062571;27;96802;-69
2022/02/11 11:24:44;;;;;;;1999.90;999.90;;;;;;;-0.39;60.86;101619.25;5062400;27;98049;-69
2022/02/11 11:27:13;;;;;;;1999.90;999.90;;;;;;;-0.38;60.73;101615.88;5060312;27;100682;-69
2022/02/11 11:29:41;;;;;;;1999.90;999.90;;;;;;;-0.38;60.58;101626.34;5059821;27;96769;-71
2022/02/11 11:32:13;;;;;;;1999.90;999.90;;;;;;;-0.36;60.52;101618.59;5056893;27;96905;-69
2022/02/11 11:34:40;;;;;;;1999.90;999.90;;;;;;;-0.37;61.01;101628.16;5039482;27;99438;-69
2022/02/11 11:37:10;;;;;;;1999.90;999.90;;;;;;;-0.42;61.25;101634.72;5061696;27;98891;-70
2022/02/11 11:39:40;;;;;;;1999.90;999.90;;;;;;;-0.47;61.20;101628.25;5043311;27;96852;-70
2022/02/11 11:42:11;;;;;;;1999.90;999.90;;;;;;;-0.47;61.04;101627.31;5057073;27;97155;-71
2022/02/11 11:45:00;;;;;;;1999.90;999.90;;;;;;;-0.50;61.82;101634.94;5040801;27;99263;-69
2022/02/11 11:47:31;;;;;;;1999.90;999.90;;;;;;;-0.48;61.19;101618.56;5041970;27;100911;-70
2022/02/11 11:49:59;;;;;;;1999.90;999.90;;;;;;;-0.44;61.30;101625.84;5042000;27;98651;-73
2022/02/11 11:52:41;;;;;;;1999.90;999.90;;;;;;;-0.40;61.30;101633.16;5043903;27;96947;-71
2022/02/11 11:55:18;;;;;;;1999.90;999.90;;;;;;;-0.42;61.61;101644.25;5061420;27;99631;-71
2022/02/11 11:57:46;;;;;;;1999.90;999.90;;;;;;;-0.42;61.36;101645.19;5042159;27;99587;-72
2022/02/11 12:00:32;;;;;;;1999.90;999.90;;;;;;;-0.46;62.01;101643.13;5062251;27;98722;-71
2022/02/11 12:03:04;;;;;;;1999.90;999.90;;;;;;;-0.44;61.56;101643.22;5059429;27;97610;-70
2022/02/11 12:05:41;;;;;;;1999.90;999.90;;;;;;;-0.43;61.70;101655.53;5043652;27;97868;-70
2022/02/11 12:08:09;;;;;;;1999.90;999.90;;;;;;;-0.41;61.72;101656.56;5059988;27;97590;-72
2022/02/11 12:10:37;;;;;;;1999.90;999.90;;;;;;;-0.46;61.73;101648.34;5061911;27;97850;-70
2022/02/11 12:13:05;;;;;;;1999.90;999.90;;;;;;;-0.46;61.21;101664.03;5057542;27;97541;-71
2022/02/11 12:15:34;;;;;;;1999.90;999.90;;;;;;;-0.48;61.44;101654.25;5056543;27;98357;-70
2022/02/11 12:18:03;;;;;;;1999.90;999.90;;;;;;;-0.51;60.96;101662.75;5048378;27;98170;-71
2022/02/11 12:20:30;;;;;;;1999.90;999.90;;;;;;;-0.52;61.63;101662.66;5048877;27;97925;-71
2022/02/11 12:28:44;;;;;;;1999.90;999.90;;;;;;;-0.48;61.62;101664.72;4951692;28;99063;-71
2022/02/11 12:31:24;;;;;;;1999.90;999.90;;;;;;;-0.47;61.22;101672.69;4984437;27;99322;-70
2022/02/11 12:33:52;;;;;;;1999.90;999.90;;;;;;;-0.44;61.21;101678.13;5049168;27;99078;-70
2022/02/11 12:36:20;;;;;;;1999.90;999.90;;;;;;;-0.43;61.41;101685.19;5044105;27;98574;-71
2022/02/11 12:38:56;;;;;;;1999.90;999.90;;;;;;;-0.42;61.45;101676.56;5046216;27;98523;-70
2022/02/11 12:41:24;;;;;;;1999.90;999.90;;;;;;;-0.37;61.17;101688.28;5024961;27;98953;-70
2022/02/11 12:43:58;;;;;;;1999.90;999.90;;;;;;;-0.36;61.10;101681.38;5036562;27;97563;-70
2022/02/11 12:46:29;;;;;;;1999.90;999.90;;;;;;;-0.37;61.55;101689.97;5022092;27;99613;-71
2022/02/11 12:49:00;;;;;;;1999.90;999.90;;;;;;;-0.39;61.57;101695.09;5020973;27;99297;-71
2022/02/11 12:51:28;;;;;;;1999.90;999.90;;;;;;;-0.38;61.35;101696.00;5042578;27;97333;-71
2022/02/11 12:54:03;;;;;;;1999.90;999.90;;;;;;;-0.37;61.18;101698.75;5042915;27;98836;-69
2022/02/11 12:56:33;;;;;;;1999.90;999.90;;;;;;;-0.30;61.25;101703.66;5019203;27;98161;-70
2022/02/11 12:59:07;;;;;;;1999.90;999.90;;;;;;;-0.29;61.17;101702.88;5028734;27;101284;-68
2022/02/11 13:01:36;;;;;;;1999.90;999.90;;;;;;;-0.23;61.32;101711.19;5041685;27;98139;-69
2022/02/11 13:04:07;;;;;;;1999.90;999.90;;;;;;;-0.18;61.58;101708.97;5029344;27;98141;-69
2022/02/11 13:06:43;;;;;;;1999.90;999.90;;;;;;;-0.13;61.43;101708.53;5032430;27;99404;-68
2022/02/11 13:09:12;;;;;;;1999.90;999.90;;;;;;;-0.10;61.31;101713.97;5040476;27;99328;-71
2022/02/11 13:11:59;;;;;;;1999.90;999.90;;;;;;;-0.09;61.62;101714.91;5040612;27;97594;-67
2022/02/11 13:14:28;;;;;;;1999.90;999.90;;;;;;;-0.08;61.60;101717.63;5043180;27;99289;-72
2022/02/11 13:16:57;;;;;;;1999.90;999.90;;;;;;;-0.05;61.20;101727.44;5041233;27;98331;-69
2022/02/11 13:19:25;;;;;;;1999.90;999.90;;;;;;;-0.03;61.44;101731.97;5019317;27;99563;-70
2022/02/11 13:21:53;;;;;;;1999.90;999.90;;;;;;;0.04;61.20;101739.53;5027008;27;97967;-70
2022/02/11 13:24:21;;;;;;;1999.90;999.90;;;;;;;0.07;60.98;101736.25;5040919;27;97855;-70
2022/02/11 13:26:48;;;;;;;1999.90;999.90;;;;;;;0.10;61.21;101741.72;5026446;27;99448;-70
2022/02/11 13:29:16;;;;;;;1999.90;999.90;;;;;;;0.12;61.19;101743.66;5045773;27;97662;-70
2022/02/11 13:31:48;;;;;;;1999.90;999.90;;;;;;;0.13;61.48;101766.44;5032268;27;97965;-69
2022/02/11 13:34:18;;;;;;;1999.90;999.90;;;;;;;0.16;61.19;101774.50;5017208;27;98176;-70
2022/02/11 13:36:48;;;;;;;1999.90;999.90;;;;;;;0.16;61.55;101782.34;5032154;27;100803;-70
2022/02/11 13:39:28;;;;;;;1999.90;999.90;;;;;;;0.16;61.84;101787.59;5041389;27;98847;-71
2022/02/11 13:41:56;;;;;;;1999.90;999.90;;;;;;;0.21;61.95;101796.72;5050101;27;97283;-73
2022/02/11 13:44:35;;;;;;;1999.90;999.90;;;;;;;0.23;61.60;101798.56;5035730;27;97233;-68
2022/02/11 13:47:03;;;;;;;1999.90;999.90;;;;;;;0.27;61.67;101805.88;5031870;27;101159;-69
2022/02/11 13:49:39;;;;;;;1999.90;999.90;;;;;;;0.23;62.67;101810.84;5046606;27;97910;-68
2022/02/11 13:54:59;;;;;;;1999.90;999.90;;;;;;;0.23;62.35;101810.84;5032381;27;98673;-71
2022/02/11 13:57:27;;;;;;;1999.90;999.90;;;;;;;0.28;61.54;101818.19;5033040;27;99382;-66
2022/02/11 13:59:55;;;;;;;1999.90;999.90;;;;;;;0.31;61.91;101823.63;5033692;27;101212;-69
2022/02/11 14:02:28;;;;;;;1999.90;999.90;;;;;;;0.34;61.68;101823.91;5028644;27;96959;-70
2022/02/11 14:05:02;;;;;;;1999.90;999.90;;;;;;;0.34;61.73;101837.88;5032132;27;97486;-69
2022/02/11 14:07:30;;;;;;;1999.90;999.90;;;;;;;0.36;61.74;101838.03;5046514;27;99084;-69
2022/02/11 14:09:57;;;;;;;1999.90;999.90;;;;;;;0.35;61.93;101847.59;5035623;27;100740;-70
2022/02/11 14:12:31;;;;;;;1999.90;999.90;;;;;;;0.37;61.35;101851.22;5043351;27;99423;-69